sensor_id;sensor_type;location;lat;lon;timestamp;P1;durP1;ratioP1;P2;durP2;ratioP2
28714;SDS011;15886;49.170;14.572;2022-10-31T00:00:34;10.98;;;6.70;;
28714;SDS011;15886;49.170;14.572;2022-10-31T00:03:03;15.93;;;7.18;;
28714;SDS011;15886;49.170;14.572;2022-10-31T00:05:33;12.52;;;7.22;;
28714;SDS011;15886;49.170;14.572;2022-10-31T00:08:27;13.00;;;7.00;;
28714;SDS011;15886;49.170;14.572;2022-10-31T00:10:57;12.20;;;6.70;;
28714;SDS011;15886;49.170;14.572;2022-10-31T00:13:47;22.20;;;7.03;;
28714;SDS011;15886;49.170;14.572;2022-10-31T00:16:39;16.70;;;7.38;;
28714;SDS011;15886;49.170;14.572;2022-10-31T00:19:11;16.05;;;7.85;;
28714;SDS011;15886;49.170;14.572;2022-10-31T00:21:39;23.63;;;8.00;;
28714;SDS011;15886;49.170;14.572;2022-10-31T00:24:12;14.05;;;6.45;;
28714;SDS011;15886;49.170;14.572;2022-10-31T00:29:31;9.23;;;5.90;;
28714;SDS011;15886;49.170;14.572;2022-10-31T00:32:23;11.45;;;6.57;;
28714;SDS011;15886;49.170;14.572;2022-10-31T00:37:49;32.30;;;11.15;;
28714;SDS011;15886;49.170;14.572;2022-10-31T02:06:30;101.05;;;9.65;;
28714;SDS011;15886;49.170;14.572;2022-10-31T02:13:55;21.13;;;7.35;;
28714;SDS011;15886;49.170;14.572;2022-10-31T02:16:34;13.57;;;6.78;;
28714;SDS011;15886;49.170;14.572;2022-10-31T02:19:41;10.05;;;7.70;;
28714;SDS011;15886;49.170;14.572;2022-10-31T02:22:16;9.60;;;7.00;;
28714;SDS011;15886;49.170;14.572;2022-10-31T02:38:35;16.27;;;8.40;;
28714;SDS011;15886;49.170;14.572;2022-10-31T02:45:43;14.95;;;8.48;;
28714;SDS011;15886;49.170;14.572;2022-10-31T02:52:27;32.97;;;9.27;;
28714;SDS011;15886;49.170;14.572;2022-10-31T02:58:46;12.13;;;8.20;;
28714;SDS011;15886;49.170;14.572;2022-10-31T03:06:33;17.88;;;6.43;;
28714;SDS011;15886;49.170;14.572;2022-10-31T03:09:18;21.83;;;6.40;;
28714;SDS011;15886;49.170;14.572;2022-10-31T03:11:58;63.03;;;6.97;;
28714;SDS011;15886;49.170;14.572;2022-10-31T03:14:32;38.15;;;5.55;;
28714;SDS011;15886;49.170;14.572;2022-10-31T03:17:05;51.55;;;5.75;;
28714;SDS011;15886;49.170;14.572;2022-10-31T03:19:37;11.40;;;5.45;;
28714;SDS011;15886;49.170;14.572;2022-10-31T03:22:21;12.45;;;5.20;;
28714;SDS011;15886;49.170;14.572;2022-10-31T03:24:50;8.77;;;4.78;;
28714;SDS011;15886;49.170;14.572;2022-10-31T03:27:25;5.40;;;4.90;;
28714;SDS011;15886;49.170;14.572;2022-10-31T03:29:55;9.82;;;4.63;;
28714;SDS011;15886;49.170;14.572;2022-10-31T03:32:26;5.50;;;4.50;;
28714;SDS011;15886;49.170;14.572;2022-10-31T03:34:56;5.32;;;4.50;;
28714;SDS011;15886;49.170;14.572;2022-10-31T03:37:26;5.88;;;4.10;;
28714;SDS011;15886;49.170;14.572;2022-10-31T03:39:57;5.10;;;4.60;;
28714;SDS011;15886;49.170;14.572;2022-10-31T03:42:30;5.35;;;4.22;;
28714;SDS011;15886;49.170;14.572;2022-10-31T03:45:06;5.80;;;3.65;;
28714;SDS011;15886;49.170;14.572;2022-10-31T03:47:36;4.82;;;4.05;;
28714;SDS011;15886;49.170;14.572;2022-10-31T03:50:20;5.63;;;4.72;;
28714;SDS011;15886;49.170;14.572;2022-10-31T03:52:53;5.38;;;4.47;;
28714;SDS011;15886;49.170;14.572;2022-10-31T04:01:14;4.88;;;4.03;;
28714;SDS011;15886;49.170;14.572;2022-10-31T04:04:46;33.47;;;6.13;;
28714;SDS011;15886;49.170;14.572;2022-10-31T04:10:43;59.17;;;7.45;;
28714;SDS011;15886;49.170;14.572;2022-10-31T04:13:17;100.28;;;9.85;;
28714;SDS011;15886;49.170;14.572;2022-10-31T04:15:56;166.23;;;11.07;;
28714;SDS011;15886;49.170;14.572;2022-10-31T04:28:12;25.63;;;7.93;;
28714;SDS011;15886;49.170;14.572;2022-10-31T04:32:30;35.30;;;7.70;;
28714;SDS011;15886;49.170;14.572;2022-10-31T04:41:41;36.23;;;7.03;;
28714;SDS011;15886;49.170;14.572;2022-10-31T04:47:32;34.05;;;6.47;;
28714;SDS011;15886;49.170;14.572;2022-10-31T05:26:34;5.57;;;4.93;;
28714;SDS011;15886;49.170;14.572;2022-10-31T05:38:29;4.97;;;4.30;;
28714;SDS011;15886;49.170;14.572;2022-10-31T05:41:09;8.32;;;4.28;;
28714;SDS011;15886;49.170;14.572;2022-10-31T05:44:08;5.55;;;4.00;;
28714;SDS011;15886;49.170;14.572;2022-10-31T05:46:55;6.68;;;4.97;;
28714;SDS011;15886;49.170;14.572;2022-10-31T05:49:45;10.80;;;3.92;;
28714;SDS011;15886;49.170;14.572;2022-10-31T05:52:42;9.73;;;4.65;;
28714;SDS011;15886;49.170;14.572;2022-10-31T05:55:28;7.97;;;5.35;;
28714;SDS011;15886;49.170;14.572;2022-10-31T05:58:18;8.38;;;5.15;;
28714;SDS011;15886;49.170;14.572;2022-10-31T06:08:03;10.30;;;5.78;;
28714;SDS011;15886;49.170;14.572;2022-10-31T06:10:31;25.70;;;6.75;;
28714;SDS011;15886;49.170;14.572;2022-10-31T06:12:59;21.17;;;7.47;;
28714;SDS011;15886;49.170;14.572;2022-10-31T06:15:48;35.78;;;7.15;;
28714;SDS011;15886;49.170;14.572;2022-10-31T06:18:19;80.85;;;8.02;;
28714;SDS011;15886;49.170;14.572;2022-10-31T06:20:50;72.68;;;7.53;;
28714;SDS011;15886;49.170;14.572;2022-10-31T06:23:19;56.03;;;7.05;;
28714;SDS011;15886;49.170;14.572;2022-10-31T06:25:51;36.05;;;7.90;;
28714;SDS011;15886;49.170;14.572;2022-10-31T06:28:19;79.88;;;9.45;;
28714;SDS011;15886;49.170;14.572;2022-10-31T06:30:52;54.88;;;10.13;;
28714;SDS011;15886;49.170;14.572;2022-10-31T06:33:21;93.95;;;15.10;;
28714;SDS011;15886;49.170;14.572;2022-10-31T06:35:55;145.57;;;16.40;;
28714;SDS011;15886;49.170;14.572;2022-10-31T06:38:25;236.02;;;18.73;;
28714;SDS011;15886;49.170;14.572;2022-10-31T06:40:54;197.48;;;15.43;;
28714;SDS011;15886;49.170;14.572;2022-10-31T06:43:26;126.82;;;15.45;;
28714;SDS011;15886;49.170;14.572;2022-10-31T06:46:21;113.85;;;13.95;;
28714;SDS011;15886;49.170;14.572;2022-10-31T06:49:21;201.18;;;19.25;;
28714;SDS011;15886;49.170;14.572;2022-10-31T06:51:53;85.43;;;17.35;;
28714;SDS011;15886;49.170;14.572;2022-10-31T06:54:22;60.08;;;17.67;;
28714;SDS011;15886;49.170;14.572;2022-10-31T06:56:50;49.40;;;15.07;;
28714;SDS011;15886;49.170;14.572;2022-10-31T06:59:18;32.88;;;11.75;;
28714;SDS011;15886;49.170;14.572;2022-10-31T07:04:32;119.90;;;11.73;;
28714;SDS011;15886;49.170;14.572;2022-10-31T07:07:01;130.50;;;14.05;;
28714;SDS011;15886;49.170;14.572;2022-10-31T07:09:30;78.93;;;14.80;;
28714;SDS011;15886;49.170;14.572;2022-10-31T07:12:01;47.88;;;12.48;;
28714;SDS011;15886;49.170;14.572;2022-10-31T07:14:32;23.63;;;9.40;;
28714;SDS011;15886;49.170;14.572;2022-10-31T07:17:01;11.20;;;7.68;;
28714;SDS011;15886;49.170;14.572;2022-10-31T07:19:39;13.48;;;7.47;;
28714;SDS011;15886;49.170;14.572;2022-10-31T07:22:08;10.35;;;8.18;;
28714;SDS011;15886;49.170;14.572;2022-10-31T07:24:39;16.42;;;8.07;;
28714;SDS011;15886;49.170;14.572;2022-10-31T07:27:19;17.65;;;10.40;;
28714;SDS011;15886;49.170;14.572;2022-10-31T07:29:48;15.35;;;9.30;;
28714;SDS011;15886;49.170;14.572;2022-10-31T07:32:16;32.05;;;11.02;;
28714;SDS011;15886;49.170;14.572;2022-10-31T07:34:51;23.10;;;10.35;;
28714;SDS011;15886;49.170;14.572;2022-10-31T07:37:38;12.95;;;9.40;;
28714;SDS011;15886;49.170;14.572;2022-10-31T07:40:07;16.52;;;9.93;;
28714;SDS011;15886;49.170;14.572;2022-10-31T07:42:36;14.90;;;10.07;;
28714;SDS011;15886;49.170;14.572;2022-10-31T07:45:06;17.40;;;10.80;;
28714;SDS011;15886;49.170;14.572;2022-10-31T07:48:10;25.10;;;13.48;;
28714;SDS011;15886;49.170;14.572;2022-10-31T07:50:56;26.67;;;12.93;;
28714;SDS011;15886;49.170;14.572;2022-10-31T07:54:03;32.97;;;15.47;;
28714;SDS011;15886;49.170;14.572;2022-10-31T07:56:31;45.83;;;22.05;;
28714;SDS011;15886;49.170;14.572;2022-10-31T07:58:59;43.08;;;18.60;;
28714;SDS011;15886;49.170;14.572;2022-10-31T08:01:28;44.17;;;18.90;;
28714;SDS011;15886;49.170;14.572;2022-10-31T08:04:25;38.22;;;17.58;;
28714;SDS011;15886;49.170;14.572;2022-10-31T08:07:13;34.50;;;16.58;;
28714;SDS011;15886;49.170;14.572;2022-10-31T08:09:46;32.03;;;16.63;;
28714;SDS011;15886;49.170;14.572;2022-10-31T08:12:20;26.27;;;15.23;;
28714;SDS011;15886;49.170;14.572;2022-10-31T08:14:49;31.83;;;17.08;;
28714;SDS011;15886;49.170;14.572;2022-10-31T08:17:19;34.53;;;18.10;;
28714;SDS011;15886;49.170;14.572;2022-10-31T08:19:54;24.65;;;15.07;;
28714;SDS011;15886;49.170;14.572;2022-10-31T08:22:28;26.63;;;13.07;;
28714;SDS011;15886;49.170;14.572;2022-10-31T08:24:56;30.00;;;13.75;;
28714;SDS011;15886;49.170;14.572;2022-10-31T08:27:24;38.90;;;12.82;;
28714;SDS011;15886;49.170;14.572;2022-10-31T08:29:55;40.75;;;11.85;;
28714;SDS011;15886;49.170;14.572;2022-10-31T08:32:23;23.80;;;9.98;;
28714;SDS011;15886;49.170;14.572;2022-10-31T08:35:10;41.42;;;9.15;;
28714;SDS011;15886;49.170;14.572;2022-10-31T08:37:57;19.73;;;9.43;;
28714;SDS011;15886;49.170;14.572;2022-10-31T08:40:26;41.28;;;9.93;;
28714;SDS011;15886;49.170;14.572;2022-10-31T08:43:05;162.93;;;49.80;;
28714;SDS011;15886;49.170;14.572;2022-10-31T08:45:34;84.95;;;34.40;;
28714;SDS011;15886;49.170;14.572;2022-10-31T08:48:04;99.93;;;34.33;;
28714;SDS011;15886;49.170;14.572;2022-10-31T08:50:37;57.92;;;28.83;;
28714;SDS011;15886;49.170;14.572;2022-10-31T08:53:14;24.85;;;14.35;;
28714;SDS011;15886;49.170;14.572;2022-10-31T08:55:45;21.85;;;11.18;;
28714;SDS011;15886;49.170;14.572;2022-10-31T08:58:24;57.80;;;15.32;;
28714;SDS011;15886;49.170;14.572;2022-10-31T09:00:58;18.40;;;10.05;;
28714;SDS011;15886;49.170;14.572;2022-10-31T09:03:28;19.23;;;8.63;;
28714;SDS011;15886;49.170;14.572;2022-10-31T09:05:58;53.78;;;11.40;;
28714;SDS011;15886;49.170;14.572;2022-10-31T09:08:28;74.07;;;11.98;;
28714;SDS011;15886;49.170;14.572;2022-10-31T09:10:57;36.72;;;12.95;;
28714;SDS011;15886;49.170;14.572;2022-10-31T09:13:44;69.53;;;13.68;;
28714;SDS011;15886;49.170;14.572;2022-10-31T09:16:42;39.03;;;10.75;;
28714;SDS011;15886;49.170;14.572;2022-10-31T09:19:17;64.17;;;12.27;;
28714;SDS011;15886;49.170;14.572;2022-10-31T09:21:46;45.30;;;13.05;;
28714;SDS011;15886;49.170;14.572;2022-10-31T09:24:15;66.57;;;12.00;;
28714;SDS011;15886;49.170;14.572;2022-10-31T09:26:43;30.55;;;10.85;;
28714;SDS011;15886;49.170;14.572;2022-10-31T09:29:24;14.63;;;9.27;;
28714;SDS011;15886;49.170;14.572;2022-10-31T09:31:57;23.67;;;10.82;;
28714;SDS011;15886;49.170;14.572;2022-10-31T09:34:27;41.80;;;13.43;;
28714;SDS011;15886;49.170;14.572;2022-10-31T09:37:07;17.38;;;10.73;;
28714;SDS011;15886;49.170;14.572;2022-10-31T09:39:36;29.25;;;10.77;;
28714;SDS011;15886;49.170;14.572;2022-10-31T09:47:37;19.48;;;11.75;;
28714;SDS011;15886;49.170;14.572;2022-10-31T09:50:30;31.73;;;9.32;;
28714;SDS011;15886;49.170;14.572;2022-10-31T09:53:10;19.35;;;12.80;;
28714;SDS011;15886;49.170;14.572;2022-10-31T09:55:42;19.70;;;11.52;;
28714;SDS011;15886;49.170;14.572;2022-10-31T09:58:15;16.52;;;11.77;;
28714;SDS011;15886;49.170;14.572;2022-10-31T10:00:44;21.08;;;10.82;;
28714;SDS011;15886;49.170;14.572;2022-10-31T10:03:22;16.98;;;10.32;;
28714;SDS011;15886;49.170;14.572;2022-10-31T10:06:38;15.15;;;10.77;;
28714;SDS011;15886;49.170;14.572;2022-10-31T10:09:03;16.85;;;11.20;;
28714;SDS011;15886;49.170;14.572;2022-10-31T10:14:19;15.45;;;11.25;;
28714;SDS011;15886;49.170;14.572;2022-10-31T10:30:17;15.23;;;10.75;;
28714;SDS011;15886;49.170;14.572;2022-10-31T10:32:56;14.40;;;9.20;;
28714;SDS011;15886;49.170;14.572;2022-10-31T10:35:35;14.52;;;10.00;;
28714;SDS011;15886;49.170;14.572;2022-10-31T10:38:10;15.80;;;9.93;;
28714;SDS011;15886;49.170;14.572;2022-10-31T10:40:40;19.98;;;11.85;;
28714;SDS011;15886;49.170;14.572;2022-10-31T10:46:14;15.75;;;10.20;;
28714;SDS011;15886;49.170;14.572;2022-10-31T10:49:09;12.23;;;8.95;;
28714;SDS011;15886;49.170;14.572;2022-10-31T10:54:38;19.20;;;9.18;;
28714;SDS011;15886;49.170;14.572;2022-10-31T10:59:41;14.90;;;9.57;;
28714;SDS011;15886;49.170;14.572;2022-10-31T11:02:18;12.55;;;8.88;;
28714;SDS011;15886;49.170;14.572;2022-10-31T11:04:57;11.70;;;8.32;;
28714;SDS011;15886;49.170;14.572;2022-10-31T11:07:36;13.13;;;8.18;;
28714;SDS011;15886;49.170;14.572;2022-10-31T11:10:05;13.45;;;7.95;;
28714;SDS011;15886;49.170;14.572;2022-10-31T11:12:40;12.93;;;8.67;;
28714;SDS011;15886;49.170;14.572;2022-10-31T11:15:27;13.60;;;9.18;;
28714;SDS011;15886;49.170;14.572;2022-10-31T11:17:57;14.10;;;8.68;;
28714;SDS011;15886;49.170;14.572;2022-10-31T11:20:30;12.20;;;8.32;;
28714;SDS011;15886;49.170;14.572;2022-10-31T11:23:15;13.00;;;8.63;;
28714;SDS011;15886;49.170;14.572;2022-10-31T11:25:48;13.70;;;8.30;;
28714;SDS011;15886;49.170;14.572;2022-10-31T11:28:17;13.18;;;8.18;;
28714;SDS011;15886;49.170;14.572;2022-10-31T11:33:18;9.73;;;7.78;;
28714;SDS011;15886;49.170;14.572;2022-10-31T11:35:47;15.52;;;8.02;;
28714;SDS011;15886;49.170;14.572;2022-10-31T11:38:19;16.75;;;8.75;;
28714;SDS011;15886;49.170;14.572;2022-10-31T11:40:55;13.95;;;8.05;;
28714;SDS011;15886;49.170;14.572;2022-10-31T11:43:24;14.27;;;8.05;;
28714;SDS011;15886;49.170;14.572;2022-10-31T11:45:53;15.20;;;8.45;;
28714;SDS011;15886;49.170;14.572;2022-10-31T11:48:25;14.32;;;8.30;;
28714;SDS011;15886;49.170;14.572;2022-10-31T11:54:15;15.02;;;8.20;;
28714;SDS011;15886;49.170;14.572;2022-10-31T11:56:46;16.08;;;7.00;;
28714;SDS011;15886;49.170;14.572;2022-10-31T11:59:15;12.07;;;7.72;;
28714;SDS011;15886;49.170;14.572;2022-10-31T12:01:48;15.23;;;8.88;;
28714;SDS011;15886;49.170;14.572;2022-10-31T12:04:17;14.52;;;8.38;;
28714;SDS011;15886;49.170;14.572;2022-10-31T12:06:46;17.42;;;8.65;;
28714;SDS011;15886;49.170;14.572;2022-10-31T12:09:22;12.27;;;8.00;;
28714;SDS011;15886;49.170;14.572;2022-10-31T12:19:42;15.45;;;7.57;;
28714;SDS011;15886;49.170;14.572;2022-10-31T12:27:25;13.35;;;8.63;;
28714;SDS011;15886;49.170;14.572;2022-10-31T12:32:38;13.35;;;8.18;;
28714;SDS011;15886;49.170;14.572;2022-10-31T12:35:16;13.18;;;7.95;;
28714;SDS011;15886;49.170;14.572;2022-10-31T12:45:34;14.50;;;9.35;;
28714;SDS011;15886;49.170;14.572;2022-10-31T12:50:47;13.60;;;8.30;;
28714;SDS011;15886;49.170;14.572;2022-10-31T12:56:05;13.57;;;9.23;;
28714;SDS011;15886;49.170;14.572;2022-10-31T12:58:55;13.82;;;7.60;;
28714;SDS011;15886;49.170;14.572;2022-10-31T13:07:01;12.82;;;8.80;;
28714;SDS011;15886;49.170;14.572;2022-10-31T13:09:34;17.50;;;7.90;;
28714;SDS011;15886;49.170;14.572;2022-10-31T13:12:07;17.67;;;8.27;;
28714;SDS011;15886;49.170;14.572;2022-10-31T13:14:40;16.50;;;8.50;;
28714;SDS011;15886;49.170;14.572;2022-10-31T13:17:20;28.90;;;15.77;;
28714;SDS011;15886;49.170;14.572;2022-10-31T13:19:49;273.58;;;103.10;;
28714;SDS011;15886;49.170;14.572;2022-10-31T13:22:20;163.82;;;80.03;;
28714;SDS011;15886;49.170;14.572;2022-10-31T13:24:59;112.32;;;55.80;;
28714;SDS011;15886;49.170;14.572;2022-10-31T13:27:30;33.42;;;18.60;;
28714;SDS011;15886;49.170;14.572;2022-10-31T13:30:15;27.30;;;11.45;;
28714;SDS011;15886;49.170;14.572;2022-10-31T13:32:55;23.63;;;6.78;;
28714;SDS011;15886;49.170;14.572;2022-10-31T13:38:34;10.93;;;5.45;;
28714;SDS011;15886;49.170;14.572;2022-10-31T13:41:09;16.48;;;6.03;;
28714;SDS011;15886;49.170;14.572;2022-10-31T13:49:01;13.88;;;7.53;;
28714;SDS011;15886;49.170;14.572;2022-10-31T13:51:30;16.58;;;7.47;;
28714;SDS011;15886;49.170;14.572;2022-10-31T13:54:05;12.75;;;6.57;;
28714;SDS011;15886;49.170;14.572;2022-10-31T13:56:34;18.95;;;8.45;;
28714;SDS011;15886;49.170;14.572;2022-10-31T14:01:37;20.45;;;11.02;;
28714;SDS011;15886;49.170;14.572;2022-10-31T14:06:48;33.17;;;14.55;;
28714;SDS011;15886;49.170;14.572;2022-10-31T14:09:33;24.00;;;11.25;;
28714;SDS011;15886;49.170;14.572;2022-10-31T14:12:03;29.88;;;11.13;;
28714;SDS011;15886;49.170;14.572;2022-10-31T14:14:34;26.65;;;11.35;;
28714;SDS011;15886;49.170;14.572;2022-10-31T14:17:04;24.58;;;9.18;;
28714;SDS011;15886;49.170;14.572;2022-10-31T14:19:32;17.38;;;8.52;;
28714;SDS011;15886;49.170;14.572;2022-10-31T14:22:01;19.80;;;8.40;;
28714;SDS011;15886;49.170;14.572;2022-10-31T14:24:33;19.15;;;8.32;;
28714;SDS011;15886;49.170;14.572;2022-10-31T14:27:32;20.15;;;8.60;;
28714;SDS011;15886;49.170;14.572;2022-10-31T14:29:50;15.48;;;8.85;;
28714;SDS011;15886;49.170;14.572;2022-10-31T14:34:59;15.05;;;7.93;;
28714;SDS011;15886;49.170;14.572;2022-10-31T14:52:01;12.20;;;7.65;;
28714;SDS011;15886;49.170;14.572;2022-10-31T14:55:14;19.05;;;10.25;;
28714;SDS011;15886;49.170;14.572;2022-10-31T15:04:00;187.10;;;103.53;;
28714;SDS011;15886;49.170;14.572;2022-10-31T15:07:25;188.77;;;106.95;;
28714;SDS011;15886;49.170;14.572;2022-10-31T15:22:59;16.83;;;7.95;;
28714;SDS011;15886;49.170;14.572;2022-10-31T15:25:36;13.32;;;8.50;;
28714;SDS011;15886;49.170;14.572;2022-10-31T15:28:12;13.43;;;7.65;;
28714;SDS011;15886;49.170;14.572;2022-10-31T15:34:11;17.00;;;8.68;;
28714;SDS011;15886;49.170;14.572;2022-10-31T15:37:20;14.65;;;8.18;;
28714;SDS011;15886;49.170;14.572;2022-10-31T15:40:05;12.18;;;8.05;;
28714;SDS011;15886;49.170;14.572;2022-10-31T15:55:38;17.85;;;8.15;;
28714;SDS011;15886;49.170;14.572;2022-10-31T16:07:36;46.35;;;26.02;;
28714;SDS011;15886;49.170;14.572;2022-10-31T16:14:13;17.55;;;9.85;;
28714;SDS011;15886;49.170;14.572;2022-10-31T16:16:51;11.80;;;7.20;;
28714;SDS011;15886;49.170;14.572;2022-10-31T16:19:25;18.05;;;8.75;;
28714;SDS011;15886;49.170;14.572;2022-10-31T16:21:56;13.68;;;9.18;;
28714;SDS011;15886;49.170;14.572;2022-10-31T16:24:32;18.05;;;8.30;;
28714;SDS011;15886;49.170;14.572;2022-10-31T16:33:27;11.63;;;7.20;;
28714;SDS011;15886;49.170;14.572;2022-10-31T16:35:59;11.80;;;7.05;;
28714;SDS011;15886;49.170;14.572;2022-10-31T16:38:43;17.30;;;8.35;;
28714;SDS011;15886;49.170;14.572;2022-10-31T16:41:12;14.32;;;7.75;;
28714;SDS011;15886;49.170;14.572;2022-10-31T16:43:42;20.30;;;8.60;;
28714;SDS011;15886;49.170;14.572;2022-10-31T16:46:23;14.20;;;7.95;;
28714;SDS011;15886;49.170;14.572;2022-10-31T16:48:59;15.88;;;7.55;;
28714;SDS011;15886;49.170;14.572;2022-10-31T16:51:36;12.85;;;7.80;;
28714;SDS011;15886;49.170;14.572;2022-10-31T16:57:05;15.73;;;7.63;;
28714;SDS011;15886;49.170;14.572;2022-10-31T16:59:40;12.38;;;7.63;;
28714;SDS011;15886;49.170;14.572;2022-10-31T17:05:02;16.88;;;8.05;;
28714;SDS011;15886;49.170;14.572;2022-10-31T17:07:31;17.85;;;7.82;;
28714;SDS011;15886;49.170;14.572;2022-10-31T17:09:59;12.73;;;6.97;;
28714;SDS011;15886;49.170;14.572;2022-10-31T17:12:27;17.42;;;7.72;;
28714;SDS011;15886;49.170;14.572;2022-10-31T17:14:55;15.90;;;7.97;;
28714;SDS011;15886;49.170;14.572;2022-10-31T17:17:24;14.60;;;7.90;;
28714;SDS011;15886;49.170;14.572;2022-10-31T17:19:52;14.07;;;7.70;;
28714;SDS011;15886;49.170;14.572;2022-10-31T17:22:20;17.42;;;7.95;;
28714;SDS011;15886;49.170;14.572;2022-10-31T17:24:48;17.50;;;8.07;;
28714;SDS011;15886;49.170;14.572;2022-10-31T17:27:16;15.48;;;8.10;;
28714;SDS011;15886;49.170;14.572;2022-10-31T17:29:45;15.32;;;8.05;;
28714;SDS011;15886;49.170;14.572;2022-10-31T17:32:13;13.77;;;7.82;;
28714;SDS011;15886;49.170;14.572;2022-10-31T17:34:42;18.35;;;9.18;;
28714;SDS011;15886;49.170;14.572;2022-10-31T17:37:10;15.00;;;8.57;;
28714;SDS011;15886;49.170;14.572;2022-10-31T17:39:38;21.23;;;8.88;;
28714;SDS011;15886;49.170;14.572;2022-10-31T17:42:34;17.33;;;8.27;;
28714;SDS011;15886;49.170;14.572;2022-10-31T17:45:05;11.10;;;7.90;;
28714;SDS011;15886;49.170;14.572;2022-10-31T17:47:36;18.92;;;8.00;;
28714;SDS011;15886;49.170;14.572;2022-10-31T17:50:05;16.80;;;7.72;;
28714;SDS011;15886;49.170;14.572;2022-10-31T17:52:41;19.80;;;8.90;;
28714;SDS011;15886;49.170;14.572;2022-10-31T17:55:13;18.75;;;9.43;;
28714;SDS011;15886;49.170;14.572;2022-10-31T17:57:42;17.15;;;9.63;;
28714;SDS011;15886;49.170;14.572;2022-10-31T18:00:12;15.63;;;9.15;;
28714;SDS011;15886;49.170;14.572;2022-10-31T18:02:41;17.00;;;9.00;;
28714;SDS011;15886;49.170;14.572;2022-10-31T18:05:10;19.50;;;8.93;;
28714;SDS011;15886;49.170;14.572;2022-10-31T18:07:41;16.35;;;9.57;;
28714;SDS011;15886;49.170;14.572;2022-10-31T18:10:09;23.55;;;9.43;;
28714;SDS011;15886;49.170;14.572;2022-10-31T18:12:38;20.55;;;9.48;;
28714;SDS011;15886;49.170;14.572;2022-10-31T18:54:12;41.08;;;23.73;;
28714;SDS011;15886;49.170;14.572;2022-10-31T18:59:50;36.13;;;22.58;;
28714;SDS011;15886;49.170;14.572;2022-10-31T19:02:25;29.88;;;18.55;;
28714;SDS011;15886;49.170;14.572;2022-10-31T19:08:09;21.88;;;14.25;;
28714;SDS011;15886;49.170;14.572;2022-10-31T19:13:58;19.35;;;12.18;;
28714;SDS011;15886;49.170;14.572;2022-10-31T19:16:35;23.05;;;12.00;;
28714;SDS011;15886;49.170;14.572;2022-10-31T19:20:21;16.23;;;11.63;;
28714;SDS011;15886;49.170;14.572;2022-10-31T19:32:16;48.22;;;23.52;;
28714;SDS011;15886;49.170;14.572;2022-10-31T19:34:47;36.65;;;16.35;;
28714;SDS011;15886;49.170;14.572;2022-10-31T19:37:19;22.13;;;8.55;;
28714;SDS011;15886;49.170;14.572;2022-10-31T19:39:53;22.75;;;9.57;;
28714;SDS011;15886;49.170;14.572;2022-10-31T19:46:15;13.35;;;8.35;;
28714;SDS011;15886;49.170;14.572;2022-10-31T19:48:47;16.70;;;8.55;;
28714;SDS011;15886;49.170;14.572;2022-10-31T19:51:33;17.90;;;10.10;;
28714;SDS011;15886;49.170;14.572;2022-10-31T19:55:04;17.23;;;10.13;;
28714;SDS011;15886;49.170;14.572;2022-10-31T19:57:33;15.50;;;7.95;;
28714;SDS011;15886;49.170;14.572;2022-10-31T20:00:23;17.55;;;7.95;;
28714;SDS011;15886;49.170;14.572;2022-10-31T20:02:52;12.23;;;7.63;;
28714;SDS011;15886;49.170;14.572;2022-10-31T20:05:29;11.80;;;8.20;;
28714;SDS011;15886;49.170;14.572;2022-10-31T20:08:06;17.52;;;9.20;;
28714;SDS011;15886;49.170;14.572;2022-10-31T20:10:40;15.20;;;8.13;;
28714;SDS011;15886;49.170;14.572;2022-10-31T20:13:09;14.60;;;8.30;;
28714;SDS011;15886;49.170;14.572;2022-10-31T20:15:41;20.13;;;10.00;;
28714;SDS011;15886;49.170;14.572;2022-10-31T20:18:10;27.08;;;12.68;;
28714;SDS011;15886;49.170;14.572;2022-10-31T20:20:41;28.08;;;13.65;;
28714;SDS011;15886;49.170;14.572;2022-10-31T20:23:10;22.13;;;11.50;;
28714;SDS011;15886;49.170;14.572;2022-10-31T20:25:45;58.90;;;24.92;;
28714;SDS011;15886;49.170;14.572;2022-10-31T20:28:13;49.75;;;24.25;;
28714;SDS011;15886;49.170;14.572;2022-10-31T20:34:51;94.72;;;37.10;;
28714;SDS011;15886;49.170;14.572;2022-10-31T20:37:36;83.03;;;28.48;;
28714;SDS011;15886;49.170;14.572;2022-10-31T20:40:10;23.83;;;11.95;;
28714;SDS011;15886;49.170;14.572;2022-10-31T20:42:40;15.85;;;7.82;;
28714;SDS011;15886;49.170;14.572;2022-10-31T20:45:20;8.80;;;6.35;;
28714;SDS011;15886;49.170;14.572;2022-10-31T20:47:57;18.88;;;10.75;;
28714;SDS011;15886;49.170;14.572;2022-10-31T20:51:29;15.35;;;9.02;;
28714;SDS011;15886;49.170;14.572;2022-10-31T20:54:43;12.35;;;7.70;;
28714;SDS011;15886;49.170;14.572;2022-10-31T20:57:50;8.52;;;6.50;;
28714;SDS011;15886;49.170;14.572;2022-10-31T21:00:47;10.57;;;5.80;;
28714;SDS011;15886;49.170;14.572;2022-10-31T21:06:52;14.68;;;8.60;;
28714;SDS011;15886;49.170;14.572;2022-10-31T21:09:23;14.30;;;10.38;;
28714;SDS011;15886;49.170;14.572;2022-10-31T21:11:59;12.48;;;7.03;;
28714;SDS011;15886;49.170;14.572;2022-10-31T21:14:45;7.57;;;6.22;;
28714;SDS011;15886;49.170;14.572;2022-10-31T21:20:37;9.45;;;5.88;;
28714;SDS011;15886;49.170;14.572;2022-10-31T21:23:20;12.40;;;7.72;;
28714;SDS011;15886;49.170;14.572;2022-10-31T21:29:51;11.27;;;6.28;;
28714;SDS011;15886;49.170;14.572;2022-10-31T21:36:50;16.67;;;11.73;;
28714;SDS011;15886;49.170;14.572;2022-10-31T21:46:31;9.60;;;6.85;;
28714;SDS011;15886;49.170;14.572;2022-10-31T22:00:45;9.85;;;6.68;;
28714;SDS011;15886;49.170;14.572;2022-10-31T22:07:47;8.73;;;5.63;;
28714;SDS011;15886;49.170;14.572;2022-10-31T22:10:49;9.70;;;6.13;;
28714;SDS011;15886;49.170;14.572;2022-10-31T22:13:35;11.00;;;6.60;;
28714;SDS011;15886;49.170;14.572;2022-10-31T22:18:58;10.07;;;6.55;;
28714;SDS011;15886;49.170;14.572;2022-10-31T22:21:35;8.20;;;5.97;;
28714;SDS011;15886;49.170;14.572;2022-10-31T22:24:04;8.07;;;6.03;;
28714;SDS011;15886;49.170;14.572;2022-10-31T22:26:33;9.63;;;5.75;;
28714;SDS011;15886;49.170;14.572;2022-10-31T22:29:03;8.27;;;6.18;;
28714;SDS011;15886;49.170;14.572;2022-10-31T22:31:31;11.57;;;6.80;;
28714;SDS011;15886;49.170;14.572;2022-10-31T22:34:00;7.93;;;5.63;;
28714;SDS011;15886;49.170;14.572;2022-10-31T22:36:29;9.85;;;5.57;;
28714;SDS011;15886;49.170;14.572;2022-10-31T22:38:58;9.63;;;6.72;;
28714;SDS011;15886;49.170;14.572;2022-10-31T22:41:27;8.48;;;5.68;;
28714;SDS011;15886;49.170;14.572;2022-10-31T22:43:56;12.18;;;6.57;;
28714;SDS011;15886;49.170;14.572;2022-10-31T22:46:29;8.93;;;5.78;;
28714;SDS011;15886;49.170;14.572;2022-10-31T22:48:59;8.07;;;5.63;;
28714;SDS011;15886;49.170;14.572;2022-10-31T22:51:29;7.80;;;6.00;;
28714;SDS011;15886;49.170;14.572;2022-10-31T22:53:58;11.70;;;6.57;;
28714;SDS011;15886;49.170;14.572;2022-10-31T22:56:29;12.18;;;6.97;;
28714;SDS011;15886;49.170;14.572;2022-10-31T22:58:57;10.05;;;6.40;;
28714;SDS011;15886;49.170;14.572;2022-10-31T23:01:27;9.77;;;6.68;;
28714;SDS011;15886;49.170;14.572;2022-10-31T23:04:01;8.02;;;6.03;;
28714;SDS011;15886;49.170;14.572;2022-10-31T23:07:06;10.52;;;7.10;;
28714;SDS011;15886;49.170;14.572;2022-10-31T23:09:44;8.48;;;6.03;;
28714;SDS011;15886;49.170;14.572;2022-10-31T23:12:17;9.18;;;5.60;;